Metar Cercanos

 

LEPA - Palma De Mallorc, Spain
Distance from station: ONO 38km
Actualización: 22/05/2018 21:00
Few Clouds
Few Clouds
 Viento del SO
Viento: SO 9 km/h
Temperatura: 20°C
Rocío: 17°C
Humedad: 83%
Barómetro: 1015 hPa
Clouds: Few Clouds
Visibility: 9 km
Cloud details: Few Clouds 396 m
2018/05/22 19:00 LEPA 221900Z 22005KT 9000 FEW013 20/17 Q1015 NOSIG
LEMH - Mahon/Menorca Is, Spain
Distance from station: ENE 105km
Actualización: 22/05/2018 21:00
Few Clouds
Few Clouds
 Viento del SO
Viento: SO 4 km/h
Temperatura: 17°C
Rocío: 15°C
Humedad: 88%
Barómetro: 1016 hPa
Clouds: Few Clouds
Visibility: 10 km
Cloud details: Few Clouds 640 m
2018/05/22 19:00 LEMH 221900Z 23002KT 9999 FEW021 17/15 Q1016
 
LEIB - Ibiza/Es Codola, Spain
Distance from station: OSO 165km
Actualización: 01/01/1970 01:00
NOT Current
unable to load LEIB data RC=404 Not Found
unable to load LEIB data RC=404 Not Found
 
LEBL - Barcelona Airpor, Spain
Distance from station: NNO 225km
Actualización: 22/05/2018 21:00
Despejado
Despejado
 Viento del S
Viento: S 7 km/h
Temperatura: 19°C
Rocío: 17°C
Humedad: 88%
Barómetro: 1015 hPa
Resumen: Despejado
Visibility: greater than 10 km
2018/05/22 19:00 LEBL 221900Z 19004KT 160V220 CAVOK 19/17 Q1015 NOSIG
 
LEVC - Valencia (civ/Mi, Spain
Distance from station: NO 188km
Actualización: 22/05/2018 21:00
Despejado
Despejado
 Viento del varies
Viento: varies 2 km/h
Temperatura: 22°C
Rocío: 13°C
Humedad: 57%
Barómetro: 1015 hPa
Resumen: Despejado
Visibility: greater than 10 km
2018/05/22 19:00 LEVC 221900Z VRB01KT CAVOK 22/13 Q1015 NOSIG
LEGE - Gerona/Costa Bra, Spain
Distance from station: N 276km
Actualización: 22/05/2018 21:00
Few Clouds
Few Clouds
 Viento del varies
Viento: varies 4 km/h
Temperatura: 18°C
Rocío: 16°C
Humedad: 88%
Barómetro: 1015 hPa
Clouds: Few Clouds
Visibility: 10 km
Cloud details: Few Clouds 1067 m
2018/05/22 19:00 LEGE 221900Z VRB02KT 9999 FEW035 18/16 Q1015
 
LEAL - Alicante/El Alte, Spain
Distance from station: OSO 344km
Actualización: 22/05/2018 21:00
Despejado
Despejado
 Viento del E
Viento: E 11 km/h
Temperatura: 20°C
Rocío: 17°C
Humedad: 83%
Barómetro: 1015 hPa
Resumen: Despejado
Visibility: greater than 10 km
2018/05/22 19:00 LEAL 221900Z 08006KT 050V110 CAVOK 20/17 Q1015 NOSIG
LEAM - Almeria Airport, Spain
Distance from station: SSO 56km
Actualización: 22/05/2018 21:00
Despejado
Despejado
 Viento del varies
Viento: varies 4 km/h
Temperatura: 20°C
Rocío: 16°C
Humedad: 78%
Barómetro: 1014 hPa
Resumen: Despejado
Visibility: greater than 10 km
2018/05/22 19:00 LEAM 221900Z VRB02KT CAVOK 20/16 Q1014
 
LEZG - Zaragoza (mil/Ci, Spain
Distance from station: NO 431km
Actualización: 22/05/2018 21:00
Few Clouds
Few Clouds
 Viento del NNO
Viento: NNO 9 km/h
Temperatura: 24°C
Rocío: 8°C
Humedad: 36%
Barómetro: 1013 hPa
Clouds: Few Clouds
Visibility: 10 km
Cloud details: Few Clouds 1219 m
2018/05/22 19:00 LEZG 221900Z 33005KT 9999 FEW040 24/08 Q1013
LEMD - Madrid/Barajas, Spain
Distance from station: ONO 234km
Actualización: 22/05/2018 21:00
Despejado
Despejado
 Viento del ENE
Viento: ENE 2 km/h
Temperatura: 21°C
Rocío: 13°C
Humedad: 60%
Barómetro: 1015 hPa
Resumen: Despejado
Visibility: greater than 10 km
2018/05/22 19:00 LEMD 221900Z 07001KT CAVOK 21/13 Q1015 NOSIG
 
LEGR - Granada Airport, Spain
Distance from station: OSO 62km
Actualización: 22/05/2018 21:00
Few Clouds
Few Clouds
 Viento del O
Viento: O 9 km/h
Temperatura: 22°C
Rocío: 12°C
Humedad: 53%
Barómetro: 1015 hPa
Clouds: Few Clouds
Visibility: 10 km
Cloud details: Few Clouds 1829 m
2018/05/22 19:00 LEGR 221900Z 28005KT 250V310 9999 FEW060 22/12 Q1015
LEMG - Malaga (civ/Mil), Spain
Distance from station: OSO 227km
Actualización: 22/05/2018 21:00
Despejado
Despejado
 Viento del ESE
Viento: ESE 15 km/h
Temperatura: 19°C
Rocío: 15°C
Humedad: 78%
Barómetro: 1014 hPa
Resumen: Despejado
Visibility: greater than 10 km
2018/05/22 19:00 LEMG 221900Z 12008KT CAVOK 19/15 Q1014 NOSIG
 
LEZL - Sevilla (civ/Mil, Spain
Distance from station: S 318km
Actualización: 22/05/2018 21:00
Despejado
Despejado
 Viento del NNO
Viento: NNO 9 km/h
Temperatura: 24°C
Rocío: 13°C
Humedad: 50%
Barómetro: 1013 hPa
Resumen: Despejado
Visibility: greater than 10 km
2018/05/22 19:00 LEZL 221900Z 34005KT 300V360 CAVOK 24/13 Q1013 NOSIG
LEVT - Vitoria, Spain
Distance from station: NO 226km
Actualización: 22/05/2018 21:00
Despejado
Despejado
 Viento del N
Viento: N 9 km/h
Temperatura: 18°C
Rocío: 10°C
Humedad: 60%
Barómetro: 1016 hPa
Resumen: Despejado
Visibility: greater than 10 km
2018/05/22 19:00 LEVT 221900Z 36005KT CAVOK 18/10 Q1016
 
LEBB - Bilbao/Sondica, Spain
Distance from station: NNO 235km
Actualización: 01/01/1970 01:00
NOT Current
unable to load LEBB data RC=404 Not Found
unable to load LEBB data RC=404 Not Found
 
LESO - San Sebastian/Fu, Spain
Distance from station: N 231km
Actualización: 22/05/2018 21:00
Despejado
Despejado
 Viento del NE
Viento: NE 9 km/h
Temperatura: 18°C
Rocío: 15°C
Humedad: 83%
Barómetro: 1016 hPa
Resumen: Despejado
Visibility: greater than 10 km
2018/05/22 19:00 LESO 221900Z 04005KT CAVOK 18/15 Q1016
 
LEVD - Valladolid(Mil/C, Spain
Distance from station: ONO 239km
Actualización: 22/05/2018 21:00
Parcialmente nuboso
Parcialmente nuboso
 Viento del E
Viento: E 6 km/h
Temperatura: 20°C
Rocío: 10°C
Humedad: 53%
Barómetro: 1015 hPa
Clouds: Parcialmente nuboso
Visibility: 10 km
Cloud details: Parcialmente nuboso 914 m
2018/05/22 19:00 LEVD 221900Z 10003KT 9999 SCT030TCU 20/10 Q1015
LESA - Salamanca (civ/M, Spain
Distance from station: ONO 349km
Actualización: 22/05/2018 21:00
Despejado
Despejado
 Viento del SSO
Viento: SSO 9 km/h
Temperatura: 18°C
Rocío: 11°C
Humedad: 64%
Barómetro: 1015 hPa
Resumen: Despejado
Visibility: greater than 10 km
2018/05/22 19:00 LESA 221900Z 20005KT 180V240 CAVOK 18/11 Q1015
 
LEXJ - Santander/Paraya, Spain
Distance from station: NNO 247km
Actualización: 22/05/2018 21:00
Despejado
Despejado
 Viento del ENE
Viento: ENE 7 km/h
Temperatura: 18°C
Rocío: 17°C
Humedad: 94%
Barómetro: 1016 hPa
Resumen: Despejado
Visibility: greater than 10 km
2018/05/22 19:00 LEXJ 221900Z 06004KT 020V100 CAVOK 18/17 Q1016
LEAS - Asturias/Aviles, Spain
Distance from station: NO 214km
Actualización: 22/05/2018 21:00
Despejado
Despejado
 Viento del ENE
Viento: ENE 7 km/h
Temperatura: 17°C
Rocío: 15°C
Humedad: 88%
Barómetro: 1016 hPa
Resumen: Despejado
Visibility: greater than 10 km
2018/05/22 19:00 LEAS 221900Z 06004KT 010V130 CAVOK 17/15 Q1016 NOSIG
 
LECO - La Coruna/Alvedr, Spain
Distance from station: ONO 222km
Actualización: 22/05/2018 21:00
Despejado
Despejado
 Viento del N
Viento: N 9 km/h
Temperatura: 21°C
Rocío: 12°C
Humedad: 57%
Barómetro: 1014 hPa
Resumen: Despejado
Visibility: greater than 10 km
2018/05/22 19:00 LECO 221900Z 35005KT 300V020 CAVOK 21/12 Q1014
LEVX - Vigo/Peinador, Spain
Distance from station: O 214km
Actualización: 22/05/2018 21:00
Despejado
Despejado
 Viento del O
Viento: O 17 km/h
Temperatura: 15°C
Rocío: 12°C
Humedad: 82%
Barómetro: 1015 hPa
Resumen: Despejado
Visibility: greater than 10 km
2018/05/22 19:00 LEVX 221900Z 27009KT 240V300 CAVOK 15/12 Q1015 NOSIG